createdAt,value
2023-04-01T00:00:38.416Z,979.43
2023-04-01T00:06:22.321Z,979.32
2023-04-01T00:12:06.382Z,979.42
2023-04-01T00:17:50.733Z,979.39
2023-04-01T00:23:34.999Z,979.28
2023-04-01T00:29:18.988Z,979.25
2023-04-01T00:35:02.959Z,979.22
2023-04-01T00:40:48.289Z,979.11
2023-04-01T00:46:32.444Z,979.21
2023-04-01T00:52:19.426Z,979.23
2023-04-01T00:58:03.927Z,979.25
2023-04-01T01:03:47.974Z,979.26
2023-04-01T01:09:37.766Z,979.28
2023-04-01T01:15:25.771Z,979.35
2023-04-01T01:21:21.337Z,979.36
2023-04-01T01:27:06.401Z,979.33
2023-04-01T01:33:10.922Z,979.4
2023-04-01T01:38:56.615Z,979.37
2023-04-01T01:44:42.669Z,979.47
2023-04-01T01:50:27.818Z,979.49
2023-04-01T01:56:13.488Z,979.54
2023-04-01T02:01:58.740Z,979.58
2023-04-01T02:07:45.542Z,979.62
2023-04-01T02:13:32.750Z,979.68
2023-04-01T02:19:18.114Z,979.74
2023-04-01T02:25:04.781Z,979.92
2023-04-01T02:30:49.949Z,979.94
2023-04-01T02:36:34.149Z,979.95
2023-04-01T02:42:18.091Z,980
2023-04-01T02:48:03.030Z,980.06
2023-04-01T02:53:47.154Z,980.1
2023-04-01T02:59:31.210Z,980.17
2023-04-01T03:05:15.146Z,980.25
2023-04-01T03:11:01.271Z,980.28
2023-04-01T03:16:45.478Z,980.43
2023-04-01T03:22:29.552Z,980.4
2023-04-01T03:28:13.526Z,980.58
2023-04-01T03:33:57.677Z,980.63
2023-04-01T03:39:44.517Z,980.65
2023-04-01T03:45:29.467Z,980.72
2023-04-01T03:51:13.919Z,980.76
2023-04-01T03:56:57.983Z,980.86
2023-04-01T04:02:42.247Z,980.91
2023-04-01T04:08:26.624Z,980.98
2023-04-01T04:14:10.611Z,981.09
2023-04-01T04:19:54.712Z,981.15
2023-04-01T04:25:38.668Z,981.19
2023-04-01T04:31:24.961Z,981.23
2023-04-01T04:37:09.118Z,981.24
2023-04-01T04:42:53.196Z,981.22
2023-04-01T04:48:37.506Z,981.31
2023-04-01T04:54:22.696Z,981.38
2023-04-01T05:00:07.675Z,981.48
2023-04-01T05:05:55.748Z,981.57
2023-04-01T05:11:39.714Z,981.67
2023-04-01T05:17:23.625Z,981.78
2023-04-01T05:23:07.589Z,981.83
2023-04-01T05:28:51.806Z,981.87
2023-04-01T05:34:36.791Z,981.91
2023-04-01T05:40:20.871Z,982.05
2023-04-01T05:46:05.069Z,982.05
2023-04-01T05:51:49.255Z,982.13
2023-04-01T05:57:33.507Z,982.07
2023-04-01T06:03:18.185Z,982.22
2023-04-01T06:09:07.304Z,982.37
2023-04-01T06:14:56.313Z,982.35
2023-04-01T06:20:45.461Z,982.41
2023-04-01T06:26:33.042Z,982.45
2023-04-01T06:32:27.213Z,982.52
2023-04-01T06:38:20.041Z,982.54
2023-04-01T06:44:09.664Z,982.62
2023-04-01T06:49:58.762Z,982.63
2023-04-01T06:55:44.965Z,982.76
2023-04-01T07:01:31.987Z,982.82
2023-04-01T07:07:18.054Z,982.87
2023-04-01T07:13:05.054Z,982.92
2023-04-01T07:18:50.563Z,983.01
2023-04-01T07:24:36.447Z,983.04
2023-04-01T07:30:22.057Z,983.17
2023-04-01T07:36:11.210Z,983.19
2023-04-01T07:42:01.893Z,983.28
2023-04-01T07:47:58.166Z,983.33
2023-04-01T07:53:47.324Z,983.4
2023-04-01T07:59:35.497Z,983.46
2023-04-01T08:05:25.935Z,983.51
2023-04-01T08:11:14.928Z,983.54
2023-04-01T08:17:04.067Z,983.71
2023-04-01T08:22:51.361Z,983.72
2023-04-01T08:28:39.340Z,983.84
2023-04-01T08:34:26.022Z,983.9
2023-04-01T08:40:17.233Z,983.93
2023-04-01T08:46:07.916Z,984.04
2023-04-01T08:52:03.382Z,984.04
2023-04-01T08:57:56.227Z,984.1
2023-04-01T09:03:52.104Z,984.17
2023-04-01T09:09:47.857Z,984.28
2023-04-01T09:15:43.041Z,984.28
2023-04-01T09:21:38.374Z,984.3
2023-04-01T09:27:28.324Z,984.34
2023-04-01T09:33:23.805Z,984.49
2023-04-01T09:39:14.578Z,984.45
2023-04-01T09:44:59.985Z,984.52
2023-04-01T09:50:47.186Z,984.55
2023-04-01T09:56:49.712Z,984.61
2023-04-01T10:02:44.941Z,984.66
2023-04-01T10:08:44.023Z,984.75
2023-04-01T10:14:49.272Z,984.8
2023-04-01T10:20:56.665Z,984.83
2023-04-01T10:26:58.150Z,984.88
2023-04-01T10:32:56.244Z,984.96
2023-04-01T10:38:53.395Z,984.95
2023-04-01T10:44:48.924Z,985.03
2023-04-01T10:50:46.740Z,985.06
2023-04-01T10:56:48.776Z,985.06
2023-04-01T11:02:44.449Z,985.09
2023-04-01T11:08:39.919Z,985.08
2023-04-01T11:14:42.588Z,985.15
2023-04-01T11:20:51.846Z,985.23
2023-04-01T11:26:42.429Z,985.23
2023-04-01T11:32:33.661Z,985.25
2023-04-01T11:38:26.568Z,985.34
2023-04-01T11:44:21.968Z,985.46
2023-04-01T11:50:14.494Z,985.55
2023-04-01T11:56:04.808Z,985.52
2023-04-01T12:02:00.426Z,985.61
2023-04-01T12:07:58.270Z,985.68
2023-04-01T12:13:45.639Z,985.74
2023-04-01T12:19:36.880Z,985.76
2023-04-01T12:25:25.110Z,985.79
2023-04-01T12:31:16.363Z,985.93
2023-04-01T12:37:05.630Z,985.91
2023-04-01T12:43:00.985Z,985.89
2023-04-01T12:48:56.312Z,986.03
2023-04-01T12:54:54.543Z,986.04
2023-04-01T13:00:50.657Z,986.15
2023-04-01T13:06:46.064Z,986.16
2023-04-01T13:12:38.416Z,986.2
2023-04-01T13:18:30.154Z,986.21
2023-04-01T13:24:20.774Z,986.36
2023-04-01T13:30:19.823Z,986.36
2023-04-01T13:36:09.848Z,986.4
2023-04-01T13:42:01.506Z,986.45
2023-04-01T13:47:57.771Z,986.5
2023-04-01T13:53:55.419Z,986.64
2023-04-01T13:59:49.402Z,986.61
2023-04-01T14:05:44.156Z,986.64
2023-04-01T14:11:32.950Z,986.69
2023-04-01T14:17:23.578Z,986.77
2023-04-01T14:23:17.563Z,986.92
2023-04-01T14:29:04.825Z,986.97
2023-04-01T14:35:06.339Z,987.06
2023-04-01T14:40:55.987Z,987.09
2023-04-01T14:46:54.328Z,987.15
2023-04-01T14:52:40.738Z,987.2
2023-04-01T14:58:26.520Z,987.2
2023-04-01T15:04:18.185Z,987.22
2023-04-01T15:10:10.080Z,987.32
2023-04-01T15:16:04.056Z,987.35
2023-04-01T15:21:59.010Z,987.45
2023-04-01T15:27:48.963Z,987.48
2023-04-01T15:33:50.122Z,987.64
2023-04-01T15:39:41.206Z,987.68
2023-04-01T15:45:33.498Z,987.77
2023-04-01T15:51:23.611Z,987.75
2023-04-01T15:57:17.415Z,987.89
2023-04-01T16:03:13.005Z,987.92
2023-04-01T16:09:06.274Z,987.93
2023-04-01T16:14:56.271Z,988
2023-04-01T16:20:51.960Z,988.03
2023-04-01T16:26:39.055Z,988.09
2023-04-01T16:32:33.103Z,988.17
2023-04-01T16:38:22.663Z,988.27
2023-04-01T16:44:19.957Z,988.29
2023-04-01T16:50:08.151Z,988.35
2023-04-01T16:55:55.203Z,988.36
2023-04-01T17:01:45.499Z,988.44
2023-04-01T17:07:34.042Z,988.48
2023-04-01T17:13:26.605Z,988.5
2023-04-01T17:19:16.426Z,988.58
2023-04-01T17:25:07.641Z,988.71
2023-04-01T17:30:54.278Z,988.73
2023-04-01T17:36:46.414Z,988.79
2023-04-01T17:42:35.444Z,988.9
2023-04-01T17:48:26.728Z,988.95
2023-04-01T17:54:16.834Z,989.04
2023-04-01T18:00:03.563Z,989.19
2023-04-01T18:05:53.680Z,989.22
2023-04-01T18:11:44.806Z,989.3
2023-04-01T18:17:35.361Z,989.37
2023-04-01T18:23:23.685Z,989.39
2023-04-01T18:29:12.925Z,989.46
2023-04-01T18:35:02.278Z,989.51
2023-04-01T18:40:50.416Z,989.6
2023-04-01T18:46:40.414Z,989.71
2023-04-01T18:52:28.023Z,989.74
2023-04-01T18:58:15.202Z,989.88
2023-04-01T19:04:02.518Z,989.94
2023-04-01T19:09:50.178Z,990.02
2023-04-01T19:15:41.471Z,990.07
2023-04-01T19:21:28.765Z,990.12
2023-04-01T19:27:17.054Z,990.18
2023-04-01T19:33:06.242Z,990.3
2023-04-01T19:39:00.308Z,990.37
2023-04-01T19:44:50.619Z,990.46
2023-04-01T19:50:40.633Z,990.45
2023-04-01T19:56:25.471Z,990.48
2023-04-01T20:02:15.771Z,990.58
2023-04-01T20:08:01.829Z,990.69
2023-04-01T20:13:50.032Z,990.72
2023-04-01T20:19:37.254Z,990.81
2023-04-01T20:25:23.896Z,990.87
2023-04-01T20:31:15.054Z,991.01
2023-04-01T20:37:11.398Z,991.1
2023-04-01T20:43:03.856Z,991.2
2023-04-01T20:49:04.549Z,991.21
2023-04-01T20:54:59.785Z,991.26
2023-04-01T21:00:51.173Z,991.26
2023-04-01T21:06:45.418Z,991.32
2023-04-01T21:12:35.797Z,991.39
2023-04-01T21:18:26.868Z,991.47
2023-04-01T21:24:20.768Z,991.55
2023-04-01T21:30:11.064Z,991.61
2023-04-01T21:35:58.916Z,991.7
2023-04-01T21:41:54.042Z,991.78
2023-04-01T21:47:49.475Z,991.78
2023-04-01T21:53:51.965Z,991.87
2023-04-01T21:59:49.854Z,991.93
2023-04-01T22:05:37.360Z,992.08
2023-04-01T22:11:26.770Z,992.13
2023-04-01T22:17:15.809Z,992.19
2023-04-01T22:23:03.918Z,992.28
2023-04-01T22:28:51.413Z,992.34
2023-04-01T22:34:40.772Z,992.34
2023-04-01T22:40:29.804Z,992.43
2023-04-01T22:46:25.933Z,992.53
2023-04-01T22:52:14.654Z,992.53
2023-04-01T22:58:01.511Z,992.6
2023-04-01T23:03:47.869Z,992.69
2023-04-01T23:09:33.690Z,992.77
2023-04-01T23:15:18.229Z,992.83
2023-04-01T23:21:09.219Z,992.86
2023-04-01T23:26:56.867Z,992.91
2023-04-01T23:32:41.759Z,993.05
2023-04-01T23:38:28.430Z,993.11
2023-04-01T23:44:15.456Z,993.22
2023-04-01T23:50:04.381Z,993.3
2023-04-01T23:55:48.867Z,993.39
